createdAt,value
2023-05-13T00:00:40.455Z,13.10
2023-05-13T00:03:10.066Z,13.00
2023-05-13T00:05:39.036Z,13.10
2023-05-13T00:08:08.066Z,13.00
2023-05-13T00:10:36.982Z,12.90
2023-05-13T00:13:05.177Z,12.90
2023-05-13T00:15:33.446Z,12.90
2023-05-13T00:18:01.696Z,12.90
2023-05-13T00:20:31.382Z,12.90
2023-05-13T00:22:59.550Z,12.90
2023-05-13T00:25:27.725Z,12.90
2023-05-13T00:27:56.001Z,12.90
2023-05-13T00:30:24.357Z,12.90
2023-05-13T00:32:52.939Z,12.90
2023-05-13T00:35:21.338Z,13.00
2023-05-13T00:37:50.910Z,13.00
2023-05-13T00:40:22.644Z,13.00
2023-05-13T00:42:51.630Z,13.00
2023-05-13T00:45:19.973Z,13.00
2023-05-13T00:47:49.566Z,13.00
2023-05-13T00:50:17.828Z,12.90
2023-05-13T00:52:46.325Z,13.00
2023-05-13T00:55:16.044Z,13.00
2023-05-13T00:57:44.339Z,13.00
2023-05-13T01:00:13.391Z,13.10
2023-05-13T01:02:47.787Z,13.00
2023-05-13T01:05:23.651Z,13.00
2023-05-13T01:08:06.059Z,13.00
2023-05-13T01:10:43.936Z,13.00
2023-05-13T01:13:14.425Z,13.00
2023-05-13T01:15:48.938Z,13.00
2023-05-13T01:18:21.427Z,13.00
2023-05-13T01:20:49.908Z,13.00
2023-05-13T01:23:19.436Z,13.00
2023-05-13T01:25:47.881Z,13.10
2023-05-13T01:28:16.181Z,13.10
2023-05-13T01:30:44.409Z,13.10
2023-05-13T01:33:12.893Z,13.10
2023-05-13T01:35:41.282Z,13.10
2023-05-13T01:38:10.785Z,13.10
2023-05-13T01:40:41.427Z,13.10
2023-05-13T01:43:09.583Z,13.10
2023-05-13T01:45:37.909Z,13.10
2023-05-13T01:48:06.604Z,13.10
2023-05-13T01:50:35.054Z,13.00
2023-05-13T01:53:03.342Z,13.10
2023-05-13T01:55:31.456Z,13.10
2023-05-13T01:58:01.002Z,13.10
2023-05-13T02:00:29.308Z,13.10
2023-05-13T02:02:57.556Z,13.10
2023-05-13T02:05:25.742Z,13.00
2023-05-13T02:07:53.879Z,13.00
2023-05-13T02:10:22.370Z,12.90
2023-05-13T02:12:50.752Z,12.90
2023-05-13T02:15:20.451Z,12.90
2023-05-13T02:17:48.691Z,12.90
2023-05-13T02:20:17.138Z,12.90
2023-05-13T02:22:45.357Z,12.90
2023-05-13T02:25:13.577Z,12.80
2023-05-13T02:27:41.740Z,12.80
2023-05-13T02:30:10.908Z,12.80
2023-05-13T02:32:42.839Z,12.80
2023-05-13T02:35:11.685Z,12.80
2023-05-13T02:37:39.877Z,12.80
2023-05-13T02:40:09.314Z,12.70
2023-05-13T02:42:37.601Z,12.70
2023-05-13T02:45:06.270Z,12.70
2023-05-13T02:47:34.557Z,12.70
2023-05-13T02:50:06.297Z,12.60
2023-05-13T02:52:35.960Z,12.60
2023-05-13T02:55:04.470Z,12.60
2023-05-13T02:57:32.673Z,12.70
2023-05-13T03:00:00.862Z,12.70
2023-05-13T03:02:29.263Z,12.70
2023-05-13T03:04:57.519Z,12.70
2023-05-13T03:07:27.072Z,12.70
2023-05-13T03:09:55.264Z,12.60
2023-05-13T03:12:23.564Z,12.70
2023-05-13T03:14:51.702Z,12.70
2023-05-13T03:17:20.088Z,12.70
2023-05-13T03:19:48.316Z,12.70
2023-05-13T03:22:16.568Z,12.60
2023-05-13T03:24:46.107Z,12.60
2023-05-13T03:27:14.281Z,12.60
2023-05-13T03:29:42.407Z,12.60
2023-05-13T03:32:10.577Z,12.60
2023-05-13T03:34:38.734Z,12.60
2023-05-13T03:37:07.841Z,12.60
2023-05-13T03:39:36.489Z,12.60
2023-05-13T03:42:06.488Z,12.60
2023-05-13T03:44:34.692Z,12.60
2023-05-13T03:47:02.970Z,12.60
2023-05-13T03:49:31.201Z,12.60
2023-05-13T03:51:59.334Z,12.50
2023-05-13T03:54:27.438Z,12.50
2023-05-13T03:56:55.494Z,12.50
2023-05-13T03:59:25.315Z,12.50
2023-05-13T04:01:53.524Z,12.50
2023-05-13T04:04:21.808Z,12.50
2023-05-13T04:06:49.995Z,12.60
2023-05-13T04:09:18.104Z,12.60
2023-05-13T04:11:46.237Z,12.50
2023-05-13T04:14:14.453Z,12.60
2023-05-13T04:16:44.104Z,12.60
2023-05-13T04:19:12.315Z,12.60
2023-05-13T04:21:40.539Z,12.60
2023-05-13T04:24:08.835Z,12.50
2023-05-13T04:26:38.864Z,12.50
2023-05-13T04:29:07.041Z,12.60
2023-05-13T04:31:35.289Z,12.60
2023-05-13T04:34:05.076Z,12.60
2023-05-13T04:36:33.295Z,12.50
2023-05-13T04:39:01.491Z,12.50
2023-05-13T04:41:29.660Z,12.50
2023-05-13T04:43:58.062Z,12.60
2023-05-13T04:46:26.283Z,12.50
2023-05-13T04:48:54.582Z,12.50
2023-05-13T04:51:24.674Z,12.50
2023-05-13T04:53:53.260Z,12.50
2023-05-13T04:56:21.826Z,12.50
2023-05-13T04:58:50.405Z,12.60
2023-05-13T05:01:18.691Z,12.60
2023-05-13T05:03:46.974Z,12.50
2023-05-13T05:06:15.472Z,12.50
2023-05-13T05:08:45.066Z,12.50
2023-05-13T05:11:13.266Z,12.50
2023-05-13T05:13:41.489Z,12.50
2023-05-13T05:16:09.780Z,12.40
2023-05-13T05:18:38.109Z,12.50
2023-05-13T05:21:06.334Z,12.50
2023-05-13T05:23:34.453Z,12.50
2023-05-13T05:26:11.553Z,12.50
2023-05-13T05:28:40.750Z,12.50
2023-05-13T05:31:09.869Z,12.50
2023-05-13T05:33:38.501Z,12.50
2023-05-13T05:36:07.447Z,12.50
2023-05-13T05:38:35.684Z,12.60
2023-05-13T05:41:05.647Z,12.50
2023-05-13T05:43:33.830Z,12.60
2023-05-13T05:46:02.125Z,12.50
2023-05-13T05:48:32.109Z,12.60
2023-05-13T05:51:01.979Z,12.60
2023-05-13T05:53:30.157Z,12.60
2023-05-13T05:55:58.288Z,12.70
2023-05-13T05:58:28.039Z,12.70
2023-05-13T06:00:57.087Z,12.70
2023-05-13T06:03:25.856Z,12.70
2023-05-13T06:05:54.208Z,12.70
2023-05-13T06:08:22.738Z,12.80
2023-05-13T06:10:50.963Z,12.70
2023-05-13T06:13:19.116Z,12.80
2023-05-13T06:15:48.724Z,12.80
2023-05-13T06:18:16.994Z,12.80
2023-05-13T06:20:45.105Z,12.80
2023-05-13T06:23:14.880Z,12.80
2023-05-13T06:25:43.209Z,12.90
2023-05-13T06:28:12.545Z,12.90
2023-05-13T06:30:40.708Z,12.90
2023-05-13T06:33:12.645Z,13.00
2023-05-13T06:35:41.001Z,13.00
2023-05-13T06:38:10.182Z,13.00
2023-05-13T06:40:38.413Z,13.00
2023-05-13T06:43:06.880Z,13.00
2023-05-13T06:45:35.072Z,13.10
2023-05-13T06:48:03.331Z,13.10
2023-05-13T06:50:32.919Z,13.10
2023-05-13T06:53:01.323Z,13.10
2023-05-13T06:55:29.554Z,13.10
2023-05-13T06:57:57.754Z,13.10
2023-05-13T07:00:26.362Z,13.10
2023-05-13T07:02:54.572Z,13.20
2023-05-13T07:05:22.942Z,13.20
2023-05-13T07:07:53.839Z,13.30
2023-05-13T07:10:22.441Z,13.30
2023-05-13T07:12:51.048Z,13.30
2023-05-13T07:15:19.459Z,13.40
2023-05-13T07:17:47.798Z,13.40
2023-05-13T07:20:16.396Z,13.40
2023-05-13T07:22:44.511Z,13.50
2023-05-13T07:25:13.997Z,13.50
2023-05-13T07:27:42.215Z,13.50
2023-05-13T07:30:11.778Z,13.50
2023-05-13T07:32:40.244Z,13.50
2023-05-13T07:35:09.339Z,13.60
2023-05-13T07:37:38.157Z,13.60
2023-05-13T07:40:08.024Z,13.70
2023-05-13T07:42:37.982Z,13.70
2023-05-13T07:45:07.341Z,13.80
2023-05-13T07:47:35.755Z,13.90
2023-05-13T07:50:05.922Z,13.90
2023-05-13T07:52:34.187Z,14.00
2023-05-13T07:55:02.438Z,13.90
2023-05-13T07:57:30.596Z,14.00
2023-05-13T08:00:00.147Z,14.10
2023-05-13T08:02:28.543Z,14.20
2023-05-13T08:04:56.660Z,14.20
2023-05-13T08:07:25.214Z,14.30
2023-05-13T08:09:53.386Z,14.20
2023-05-13T08:12:21.464Z,14.20
2023-05-13T08:14:49.654Z,14.30
2023-05-13T08:17:19.722Z,14.30
2023-05-13T08:19:48.100Z,14.30
2023-05-13T08:22:16.346Z,14.40
2023-05-13T08:24:44.499Z,14.40
2023-05-13T08:27:12.801Z,14.40
2023-05-13T08:29:41.036Z,14.40
2023-05-13T08:32:09.423Z,14.40
2023-05-13T08:34:40.155Z,14.40
2023-05-13T08:37:08.572Z,14.40
2023-05-13T08:39:36.899Z,14.30
2023-05-13T08:42:06.218Z,14.40
2023-05-13T08:44:36.879Z,14.40
2023-05-13T08:47:27.757Z,14.50
2023-05-13T08:49:57.878Z,14.40
2023-05-13T08:52:26.689Z,14.40
2023-05-13T08:54:55.475Z,14.40
2023-05-13T08:57:23.647Z,14.30
2023-05-13T08:59:52.002Z,14.30
2023-05-13T09:02:23.821Z,14.30
2023-05-13T09:04:54.908Z,14.30
2023-05-13T09:07:24.547Z,14.30
2023-05-13T09:09:53.023Z,14.30
2023-05-13T09:12:43.414Z,14.40
2023-05-13T09:15:13.624Z,14.40
2023-05-13T09:17:43.989Z,14.40
2023-05-13T09:20:13.685Z,14.40
2023-05-13T09:22:47.208Z,14.40
2023-05-13T09:25:16.877Z,14.40
2023-05-13T09:27:47.205Z,14.30
2023-05-13T09:30:15.627Z,14.40
2023-05-13T09:32:44.363Z,14.40
2023-05-13T09:35:16.825Z,14.40
2023-05-13T09:37:50.610Z,14.40
2023-05-13T09:40:19.815Z,14.40
2023-05-13T09:42:48.317Z,14.40
2023-05-13T09:45:18.370Z,14.40
2023-05-13T09:47:52.943Z,14.40
2023-05-13T09:50:21.410Z,14.50
2023-05-13T09:52:51.402Z,14.50
2023-05-13T09:55:22.656Z,14.50
2023-05-13T09:57:50.803Z,14.50
2023-05-13T10:00:32.188Z,14.50
2023-05-13T10:03:02.424Z,14.50
2023-05-13T10:05:31.271Z,14.50
2023-05-13T10:08:01.903Z,14.50
2023-05-13T10:10:32.414Z,14.60
2023-05-13T10:13:03.875Z,14.70
2023-05-13T10:15:32.298Z,14.80
2023-05-13T10:18:01.085Z,14.80
2023-05-13T10:20:29.486Z,14.80
2023-05-13T10:23:00.197Z,14.70
2023-05-13T10:25:29.048Z,14.80
2023-05-13T10:27:58.632Z,14.70
2023-05-13T10:30:27.795Z,14.60
2023-05-13T10:32:56.083Z,14.70
2023-05-13T10:35:28.345Z,14.70
2023-05-13T10:38:04.801Z,14.60
2023-05-13T10:41:06.064Z,14.70
2023-05-13T10:43:36.285Z,14.80
2023-05-13T10:46:06.810Z,15.00
2023-05-13T10:48:43.219Z,15.00
2023-05-13T10:51:15.739Z,15.00
2023-05-13T10:53:51.761Z,15.00
2023-05-13T10:56:22.106Z,15.00
2023-05-13T10:58:59.995Z,15.10
2023-05-13T11:01:30.547Z,15.00
2023-05-13T11:04:02.043Z,15.00
2023-05-13T11:06:34.715Z,15.00
2023-05-13T11:09:06.902Z,14.90
2023-05-13T11:11:36.801Z,14.90
2023-05-13T11:14:09.778Z,14.90
2023-05-13T11:16:38.540Z,14.90
2023-05-13T11:19:19.400Z,15.00
2023-05-13T11:21:51.814Z,15.00
2023-05-13T11:24:22.634Z,14.90
2023-05-13T11:26:53.305Z,14.90
2023-05-13T11:29:32.434Z,14.90
2023-05-13T11:32:01.662Z,14.90
2023-05-13T11:34:30.688Z,14.90
2023-05-13T11:37:08.298Z,14.90
2023-05-13T11:39:40.892Z,14.90
2023-05-13T11:42:09.903Z,14.90
2023-05-13T11:44:45.352Z,14.90
2023-05-13T11:47:13.605Z,14.90
2023-05-13T11:49:43.135Z,14.90
2023-05-13T11:52:12.622Z,14.80
2023-05-13T11:54:47.543Z,14.80
2023-05-13T11:57:22.699Z,14.80
2023-05-13T11:59:52.380Z,14.80
2023-05-13T12:02:22.862Z,14.80
2023-05-13T12:04:52.717Z,14.80
2023-05-13T12:07:22.681Z,14.80
2023-05-13T12:09:52.834Z,14.80
2023-05-13T12:12:21.533Z,14.80
2023-05-13T12:14:51.164Z,14.80
2023-05-13T12:17:19.950Z,14.80
2023-05-13T12:20:07.569Z,14.80
2023-05-13T12:22:37.064Z,14.80
2023-05-13T12:25:40.602Z,14.80
2023-05-13T12:28:10.383Z,14.90
2023-05-13T12:30:40.642Z,15.00
2023-05-13T12:33:14.975Z,15.10
2023-05-13T12:35:43.436Z,15.00
2023-05-13T12:38:16.448Z,15.10
2023-05-13T12:40:46.588Z,15.10
2023-05-13T12:43:15.579Z,15.00
2023-05-13T12:45:45.247Z,15.10
2023-05-13T12:48:14.548Z,15.00
2023-05-13T12:50:42.856Z,15.10
2023-05-13T12:53:11.388Z,15.00
2023-05-13T12:55:40.159Z,15.00
2023-05-13T12:58:12.227Z,15.10
2023-05-13T13:00:40.466Z,15.10
2023-05-13T13:03:09.021Z,15.10
2023-05-13T13:05:37.291Z,15.10
2023-05-13T13:08:06.349Z,15.20
2023-05-13T13:10:34.829Z,15.20
2023-05-13T13:13:03.170Z,15.10
2023-05-13T13:15:32.682Z,15.20
2023-05-13T13:18:00.808Z,15.20
2023-05-13T13:20:28.885Z,15.20
2023-05-13T13:22:57.034Z,15.20
2023-05-13T13:25:25.132Z,15.10
2023-05-13T13:27:53.294Z,15.20
2023-05-13T13:30:21.702Z,15.20
2023-05-13T13:32:51.259Z,15.20
2023-05-13T13:35:19.631Z,15.20
2023-05-13T13:37:47.785Z,15.20
2023-05-13T13:40:15.930Z,15.20
2023-05-13T13:42:45.192Z,15.20
2023-05-13T13:45:13.866Z,15.30
2023-05-13T13:47:42.476Z,15.40
2023-05-13T13:50:13.023Z,15.50
2023-05-13T13:52:41.090Z,15.60
2023-05-13T13:55:11.692Z,15.60
2023-05-13T13:57:39.944Z,15.60
2023-05-13T14:00:09.426Z,15.60
2023-05-13T14:02:37.955Z,15.60
2023-05-13T14:05:07.064Z,15.60
2023-05-13T14:07:37.553Z,15.50
2023-05-13T14:10:07.008Z,15.50
2023-05-13T14:12:35.908Z,15.50
2023-05-13T14:15:04.305Z,15.40
2023-05-13T14:17:34.128Z,15.40
2023-05-13T14:20:02.328Z,15.40
2023-05-13T14:22:30.497Z,15.40
2023-05-13T14:25:01.419Z,15.30
2023-05-13T14:27:30.163Z,15.20
2023-05-13T14:29:58.275Z,15.20
2023-05-13T14:32:26.520Z,15.10
2023-05-13T14:34:54.658Z,15.00
2023-05-13T14:37:22.744Z,15.00
2023-05-13T14:39:51.068Z,14.90
2023-05-13T14:42:21.303Z,15.00
2023-05-13T14:44:49.442Z,15.10
2023-05-13T14:47:17.627Z,15.10
2023-05-13T14:49:45.805Z,15.20
2023-05-13T14:52:14.000Z,15.10
2023-05-13T14:54:42.274Z,15.10
2023-05-13T14:57:11.052Z,15.00
2023-05-13T14:59:40.618Z,15.00
2023-05-13T15:02:09.158Z,14.90
2023-05-13T15:04:37.356Z,14.90
2023-05-13T15:07:05.931Z,15.00
2023-05-13T15:09:34.145Z,15.00
2023-05-13T15:12:02.221Z,15.00
2023-05-13T15:14:30.442Z,15.00
2023-05-13T15:17:00.090Z,15.10
2023-05-13T15:19:28.404Z,15.10
2023-05-13T15:21:56.548Z,15.10
2023-05-13T15:24:24.648Z,15.20
2023-05-13T15:26:52.946Z,15.30
2023-05-13T15:29:21.009Z,15.30
2023-05-13T15:31:50.710Z,15.40
2023-05-13T15:34:20.200Z,15.40
2023-05-13T15:36:48.396Z,15.40
2023-05-13T15:39:17.126Z,15.50
2023-05-13T15:41:45.606Z,15.40
2023-05-13T15:44:13.730Z,15.40
2023-05-13T15:46:42.655Z,15.30
2023-05-13T15:49:10.805Z,15.30
2023-05-13T15:51:40.352Z,15.30
2023-05-13T15:54:08.496Z,15.40
2023-05-13T15:59:18.884Z,15.50
2023-05-13T16:02:05.834Z,15.40
2023-05-13T16:07:26.539Z,15.30
2023-05-13T16:09:54.947Z,15.40
2023-05-13T16:12:26.715Z,15.40
2023-05-13T16:15:46.325Z,15.50
2023-05-13T16:19:15.397Z,15.50
2023-05-13T16:21:53.126Z,15.50
2023-05-13T16:24:23.492Z,15.40
2023-05-13T16:26:51.695Z,15.40
2023-05-13T16:29:19.901Z,15.40
2023-05-13T16:31:48.286Z,15.30
2023-05-13T16:34:16.428Z,15.30
2023-05-13T16:36:44.596Z,15.20
2023-05-13T16:39:12.717Z,15.20
2023-05-13T16:44:50.445Z,15.20
2023-05-13T16:47:24.512Z,15.20
2023-05-13T16:50:29.290Z,15.20
2023-05-13T16:52:57.634Z,15.20
2023-05-13T16:55:45.665Z,15.10
2023-05-13T16:58:29.025Z,15.10
2023-05-13T17:00:59.246Z,15.10
2023-05-13T17:07:06.820Z,15.10
2023-05-13T17:09:35.178Z,15.00
2023-05-13T17:12:06.231Z,15.00
2023-05-13T17:14:39.326Z,15.00
2023-05-13T17:17:07.610Z,15.00
2023-05-13T17:19:35.940Z,15.00
2023-05-13T17:22:04.185Z,15.00
2023-05-13T17:24:32.452Z,14.90
2023-05-13T17:27:00.765Z,14.90
2023-05-13T17:29:29.052Z,14.80
2023-05-13T17:31:58.653Z,14.90
2023-05-13T17:34:26.834Z,14.90
2023-05-13T17:36:55.071Z,14.80
2023-05-13T17:39:23.279Z,14.90
2023-05-13T17:41:51.416Z,14.90
2023-05-13T17:44:21.328Z,14.90
2023-05-13T17:46:49.508Z,14.90
2023-05-13T17:49:19.138Z,14.90
2023-05-13T17:51:47.294Z,14.90
2023-05-13T17:54:15.434Z,14.80
2023-05-13T17:56:45.490Z,14.80
2023-05-13T17:59:13.706Z,14.70
2023-05-13T18:01:41.933Z,14.70
2023-05-13T18:04:10.145Z,14.70
2023-05-13T18:06:39.725Z,14.80
2023-05-13T18:09:07.882Z,14.80
2023-05-13T18:11:36.057Z,14.80
2023-05-13T18:14:04.203Z,14.70
2023-05-13T18:16:32.400Z,14.70
2023-05-13T18:19:00.629Z,14.70
2023-05-13T18:21:29.306Z,14.70
2023-05-13T18:23:58.942Z,14.70
2023-05-13T18:26:27.349Z,14.60
2023-05-13T18:28:55.413Z,14.60
2023-05-13T18:31:23.568Z,14.50
2023-05-13T18:33:51.691Z,14.60
2023-05-13T18:36:25.957Z,14.70
2023-05-13T18:39:17.708Z,14.60
2023-05-13T18:41:48.723Z,14.70
2023-05-13T18:44:21.333Z,14.60
2023-05-13T18:47:16.261Z,14.70
2023-05-13T18:49:44.699Z,14.70
2023-05-13T18:52:15.907Z,14.60
2023-05-13T18:55:15.153Z,14.60
2023-05-13T18:57:47.285Z,14.60
2023-05-13T19:00:58.204Z,14.60
2023-05-13T19:03:26.969Z,14.50
2023-05-13T19:05:55.489Z,14.50
2023-05-13T19:08:27.039Z,14.50
2023-05-13T19:11:02.965Z,14.50
2023-05-13T19:16:19.565Z,14.50
2023-05-13T19:18:48.010Z,14.50
2023-05-13T19:23:11.604Z,14.50
2023-05-13T19:26:03.418Z,14.50
2023-05-13T19:28:33.629Z,14.50
2023-05-13T19:31:09.640Z,14.50
2023-05-13T19:34:10.655Z,14.40
2023-05-13T19:36:48.327Z,14.40
2023-05-13T19:39:26.673Z,14.40
2023-05-13T19:42:02.129Z,14.30
2023-05-13T19:44:32.147Z,14.30
2023-05-13T19:47:00.597Z,14.20
2023-05-13T19:49:28.981Z,14.20
2023-05-13T19:51:57.582Z,14.20
2023-05-13T19:54:25.891Z,14.10
2023-05-13T19:56:54.723Z,14.00
2023-05-13T19:59:22.994Z,14.00
2023-05-13T20:01:52.619Z,13.90
2023-05-13T20:04:20.848Z,13.90
2023-05-13T20:06:49.130Z,13.90
2023-05-13T20:09:17.311Z,13.90
2023-05-13T20:11:45.527Z,13.90
2023-05-13T20:14:13.693Z,13.90
2023-05-13T20:16:41.914Z,13.90
2023-05-13T20:19:11.479Z,14.00
2023-05-13T20:21:39.617Z,13.90
2023-05-13T20:24:08.502Z,14.00
2023-05-13T20:26:36.819Z,14.00
2023-05-13T20:29:05.573Z,14.00
2023-05-13T20:31:33.807Z,14.10
2023-05-13T20:34:03.351Z,14.10
2023-05-13T20:36:33.136Z,14.00
2023-05-13T20:39:01.249Z,13.90
2023-05-13T20:41:29.419Z,13.90
2023-05-13T20:43:57.612Z,13.80
2023-05-13T20:46:26.068Z,13.70
2023-05-13T20:48:54.252Z,13.70
2023-05-13T20:51:22.551Z,13.60
2023-05-13T20:53:52.103Z,13.60
2023-05-13T20:56:20.249Z,13.60
2023-05-13T20:58:48.491Z,13.60
2023-05-13T21:01:16.585Z,13.50
2023-05-13T21:03:44.803Z,13.50
2023-05-13T21:06:13.135Z,13.60
2023-05-13T21:08:41.349Z,13.50
2023-05-13T21:11:11.305Z,13.50
2023-05-13T21:13:39.506Z,13.50
2023-05-13T21:16:08.050Z,13.50
2023-05-13T21:18:36.357Z,13.50
2023-05-13T21:21:08.695Z,13.50
2023-05-13T21:23:37.184Z,13.40
2023-05-13T21:26:06.430Z,13.40
2023-05-13T21:28:36.079Z,13.40
2023-05-13T21:31:04.492Z,13.50
2023-05-13T21:33:32.809Z,13.50
2023-05-13T21:36:01.066Z,13.50
2023-05-13T21:38:29.616Z,13.40
2023-05-13T21:40:58.720Z,13.40
2023-05-13T21:43:27.001Z,13.40
2023-05-13T21:45:56.566Z,13.50
2023-05-13T21:48:24.914Z,13.50
2023-05-13T21:50:53.577Z,13.40
2023-05-13T21:53:22.455Z,13.40
2023-05-13T21:55:50.794Z,13.40
2023-05-13T21:58:20.608Z,13.50
2023-05-13T22:00:50.264Z,13.50
2023-05-13T22:03:19.891Z,13.50
2023-05-13T22:05:48.010Z,13.50
2023-05-13T22:08:16.250Z,13.50
2023-05-13T22:10:44.434Z,13.50
2023-05-13T22:13:12.565Z,13.50
2023-05-13T22:15:40.806Z,13.50
2023-05-13T22:18:09.269Z,13.60
2023-05-13T22:20:38.970Z,13.50
2023-05-13T22:23:07.578Z,13.60
2023-05-13T22:25:35.824Z,13.60
2023-05-13T22:28:04.068Z,13.60
2023-05-13T22:30:32.391Z,13.60
2023-05-13T22:33:02.156Z,13.60
2023-05-13T22:35:32.202Z,13.50
2023-05-13T22:38:01.964Z,13.60
2023-05-13T22:40:37.180Z,13.60
2023-05-13T22:43:05.864Z,13.50
2023-05-13T22:45:33.991Z,13.50
2023-05-13T22:48:02.298Z,13.50
2023-05-13T22:50:30.600Z,13.50
2023-05-13T22:52:58.797Z,13.50
2023-05-13T22:55:28.305Z,13.50
2023-05-13T22:57:56.449Z,13.40
2023-05-13T23:00:24.965Z,13.40
2023-05-13T23:02:53.344Z,13.40
2023-05-13T23:05:21.596Z,13.40
2023-05-13T23:07:49.748Z,13.40
2023-05-13T23:10:18.003Z,13.50
2023-05-13T23:12:47.484Z,13.40
2023-05-13T23:15:16.227Z,13.40
2023-05-13T23:17:44.539Z,13.50
2023-05-13T23:20:13.315Z,13.50
2023-05-13T23:22:41.951Z,13.50
2023-05-13T23:25:10.954Z,13.60
2023-05-13T23:27:39.063Z,13.50
2023-05-13T23:30:10.070Z,13.50
2023-05-13T23:32:38.291Z,13.50
2023-05-13T23:35:07.683Z,13.50
2023-05-13T23:37:36.406Z,13.50
2023-05-13T23:40:05.044Z,13.50
2023-05-13T23:42:33.128Z,13.50
2023-05-13T23:45:01.192Z,13.50
2023-05-13T23:47:30.964Z,13.50
2023-05-13T23:49:59.160Z,13.50
2023-05-13T23:52:27.260Z,13.50
2023-05-13T23:54:56.533Z,13.50
2023-05-13T23:57:24.989Z,13.50
2023-05-13T23:59:53.187Z,13.50
